Mena, Arkansas
Current Conditions -  °F | °C
As of 11:55 AM on Thursday 30 Oct 2014 (Local Time) from KMEZ Reporting Station
Clear Clear  
Wind Chill: 70°   Ceiling: Unl
Heat Index: 70°   Visibility: 10mi
Dew Point: 45°   Wind: 0mph
Humidity: 40%   Direction: NA
Pressure: 30.15"   Gusts: NA
Location:  34.59°N, 94.24°W
Report Text: KMEZ 301655Z AUTO 00000KT 10SM CLR 21/07 A3015 RMK AO2
Loading
Personal Weather Stations






























Interactive Weather Map New forecast layout! Learn more

10-Day Weather Forecast

Advertisements
Track Severe Weather on mobile